createdAt,value
2023-05-25T00:03:29.053Z,7.60
2023-05-25T00:06:01.541Z,9.75
2023-05-25T00:08:30.599Z,8.82
2023-05-25T00:10:59.343Z,8.88
2023-05-25T00:13:27.771Z,8.00
2023-05-25T00:15:58.631Z,12.05
2023-05-25T00:18:27.276Z,9.55
2023-05-25T00:21:06.004Z,11.55
2023-05-25T00:23:35.951Z,11.07
2023-05-25T00:26:05.305Z,10.55
2023-05-25T00:28:36.053Z,6.32
2023-05-25T00:31:04.831Z,8.35
2023-05-25T00:33:33.178Z,10.18
2023-05-25T00:36:04.505Z,10.40
2023-05-25T00:38:38.413Z,3.90
2023-05-25T00:41:08.798Z,7.93
2023-05-25T00:43:37.770Z,10.05
2023-05-25T00:46:06.260Z,7.25
2023-05-25T00:48:35.023Z,9.93
2023-05-25T00:51:06.875Z,6.63
2023-05-25T00:53:37.241Z,15.52
2023-05-25T00:56:09.159Z,10.20
2023-05-25T00:58:41.217Z,8.23
2023-05-25T01:01:13.349Z,10.52
2023-05-25T01:03:45.780Z,8.90
2023-05-25T01:06:16.040Z,5.40
2023-05-25T01:08:52.647Z,6.80
2023-05-25T01:11:23.485Z,8.13
2023-05-25T01:13:54.737Z,11.40
2023-05-25T01:16:26.093Z,10.27
2023-05-25T01:18:57.830Z,7.85
2023-05-25T01:21:31.253Z,8.55
2023-05-25T01:24:04.809Z,9.93
2023-05-25T01:26:36.232Z,14.43
2023-05-25T01:29:05.621Z,10.00
2023-05-25T01:31:35.806Z,7.78
2023-05-25T01:34:10.872Z,9.80
2023-05-25T01:36:44.995Z,10.68
2023-05-25T01:39:13.691Z,8.77
2023-05-25T01:41:42.021Z,11.48
2023-05-25T01:44:12.932Z,6.43
2023-05-25T01:46:42.631Z,7.95
2023-05-25T01:49:17.478Z,7.07
2023-05-25T01:51:52.804Z,8.75
2023-05-25T01:54:23.058Z,8.85
2023-05-25T01:56:53.280Z,9.55
2023-05-25T01:59:24.828Z,6.90
2023-05-25T02:01:54.974Z,11.20
2023-05-25T02:04:28.605Z,7.93
2023-05-25T02:06:58.716Z,7.38
2023-05-25T02:09:27.093Z,6.65
2023-05-25T02:11:58.653Z,8.90
2023-05-25T02:14:28.744Z,10.43
2023-05-25T02:16:57.892Z,10.02
2023-05-25T02:19:37.761Z,8.70
2023-05-25T02:22:12.089Z,5.65
2023-05-25T02:24:40.538Z,9.07
2023-05-25T02:27:12.901Z,8.13
2023-05-25T02:29:41.784Z,6.70
2023-05-25T02:32:10.426Z,7.15
2023-05-25T02:34:38.775Z,11.70
2023-05-25T02:37:11.929Z,7.60
2023-05-25T02:39:42.760Z,7.10
2023-05-25T02:42:11.363Z,5.88
2023-05-25T02:44:39.854Z,5.22
2023-05-25T02:47:09.791Z,7.22
2023-05-25T02:49:38.289Z,7.00
2023-05-25T02:52:07.091Z,7.65
2023-05-25T02:54:37.501Z,6.20
2023-05-25T02:57:08.501Z,5.85
2023-05-25T02:59:37.196Z,4.85
2023-05-25T03:02:05.970Z,5.72
2023-05-25T03:04:37.971Z,6.93
2023-05-25T03:07:06.776Z,5.50
2023-05-25T03:09:40.465Z,9.85
2023-05-25T03:12:13.348Z,7.10
2023-05-25T03:14:42.031Z,7.90
2023-05-25T03:17:15.929Z,5.57
2023-05-25T03:19:45.339Z,8.35
2023-05-25T03:22:16.287Z,7.45
2023-05-25T03:24:44.995Z,7.15
2023-05-25T03:27:14.875Z,7.88
2023-05-25T03:29:43.637Z,4.80
2023-05-25T03:32:14.443Z,8.48
2023-05-25T03:34:44.823Z,10.02
2023-05-25T03:37:15.171Z,6.55
2023-05-25T03:39:43.668Z,10.13
2023-05-25T03:42:12.071Z,5.00
2023-05-25T03:44:51.096Z,8.25
2023-05-25T03:47:21.982Z,5.30
2023-05-25T03:49:52.862Z,7.78
2023-05-25T03:52:21.299Z,9.18
2023-05-25T03:54:49.699Z,6.03
2023-05-25T03:57:22.679Z,6.00
2023-05-25T03:59:52.359Z,7.40
2023-05-25T04:02:20.879Z,6.90
2023-05-25T04:04:52.065Z,6.18
2023-05-25T04:07:22.942Z,5.28
2023-05-25T04:09:51.416Z,8.45
2023-05-25T04:12:19.776Z,4.38
2023-05-25T04:14:48.074Z,5.97
2023-05-25T04:17:19.099Z,5.32
2023-05-25T04:19:47.654Z,4.40
2023-05-25T04:22:16.849Z,3.97
2023-05-25T04:24:47.678Z,5.85
2023-05-25T04:27:20.480Z,7.60
2023-05-25T04:29:50.221Z,8.15
2023-05-25T04:32:38.770Z,5.15
2023-05-25T04:35:27.289Z,6.20
2023-05-25T04:37:59.566Z,7.65
2023-05-25T04:40:28.412Z,9.18
2023-05-25T04:43:00.004Z,6.80
2023-05-25T04:45:29.650Z,8.50
2023-05-25T04:48:01.688Z,5.40
2023-05-25T04:50:30.800Z,7.50
2023-05-25T04:52:59.600Z,5.75
2023-05-25T04:55:28.156Z,7.90
2023-05-25T04:57:56.905Z,9.50
2023-05-25T05:00:28.220Z,6.15
2023-05-25T05:02:57.975Z,6.18
2023-05-25T05:05:30.957Z,4.00
2023-05-25T05:08:03.670Z,8.07
2023-05-25T05:10:32.075Z,8.23
2023-05-25T05:13:01.189Z,7.60
2023-05-25T05:15:29.893Z,7.45
2023-05-25T05:17:59.071Z,4.18
2023-05-25T05:20:29.070Z,8.63
2023-05-25T05:22:57.509Z,6.97
2023-05-25T05:25:25.878Z,8.50
2023-05-25T05:27:54.336Z,8.10
2023-05-25T05:30:28.708Z,4.68
2023-05-25T05:32:58.125Z,6.07
2023-05-25T05:35:33.375Z,8.45
2023-05-25T05:38:09.948Z,6.00
2023-05-25T05:40:39.095Z,5.13
2023-05-25T05:43:08.754Z,5.32
2023-05-25T05:45:37.236Z,8.88
2023-05-25T05:48:06.372Z,7.00
2023-05-25T05:50:36.745Z,5.35
2023-05-25T05:53:05.114Z,5.15
2023-05-25T05:55:33.616Z,9.48
2023-05-25T05:58:02.335Z,5.20
2023-05-25T06:00:30.945Z,3.90
2023-05-25T06:03:00.742Z,5.00
2023-05-25T06:05:31.007Z,6.93
2023-05-25T06:08:02.408Z,5.82
2023-05-25T06:10:31.768Z,7.38
2023-05-25T06:13:01.701Z,4.20
2023-05-25T06:15:30.085Z,3.92
2023-05-25T06:18:01.459Z,3.78
2023-05-25T06:20:30.464Z,4.03
2023-05-25T06:22:58.898Z,5.15
2023-05-25T06:25:28.933Z,9.07
2023-05-25T06:27:57.704Z,4.45
2023-05-25T06:30:26.105Z,4.85
2023-05-25T06:32:54.845Z,6.03
2023-05-25T06:35:23.286Z,7.03
2023-05-25T06:37:52.974Z,6.95
2023-05-25T06:40:22.224Z,4.70
2023-05-25T06:42:52.016Z,5.10
2023-05-25T06:45:38.892Z,4.47
2023-05-25T06:48:07.478Z,4.07
2023-05-25T06:50:35.993Z,6.05
2023-05-25T06:53:04.526Z,5.13
2023-05-25T06:55:33.078Z,3.97
2023-05-25T06:58:03.105Z,6.65
2023-05-25T07:00:34.562Z,3.20
2023-05-25T07:03:03.062Z,3.22
2023-05-25T07:05:31.699Z,6.05
2023-05-25T07:08:00.234Z,7.53
2023-05-25T07:10:28.781Z,5.18
2023-05-25T07:12:57.275Z,4.93
2023-05-25T07:15:26.986Z,4.75
2023-05-25T07:18:00.231Z,5.03
2023-05-25T07:20:34.313Z,4.05
2023-05-25T07:23:03.019Z,4.95
2023-05-25T07:25:31.931Z,5.22
2023-05-25T07:28:00.868Z,2.25
2023-05-25T07:30:30.878Z,8.13
2023-05-25T07:32:59.971Z,3.80
2023-05-25T07:35:28.868Z,5.07
2023-05-25T07:38:00.493Z,4.45
2023-05-25T07:40:29.170Z,9.00
2023-05-25T07:42:57.646Z,6.40
2023-05-25T07:45:26.075Z,5.10
2023-05-25T07:47:56.174Z,8.50
2023-05-25T07:50:25.076Z,4.75
2023-05-25T07:52:53.847Z,4.57
2023-05-25T07:55:22.340Z,6.80
2023-05-25T07:57:51.542Z,4.70
2023-05-25T08:00:20.779Z,4.95
2023-05-25T08:02:49.498Z,5.28
2023-05-25T08:05:19.408Z,7.75
2023-05-25T08:07:47.758Z,7.47
2023-05-25T08:10:16.390Z,5.05
2023-05-25T08:12:49.568Z,6.03
2023-05-25T08:15:19.284Z,6.45
2023-05-25T08:17:49.422Z,3.72
2023-05-25T08:20:20.086Z,3.30
2023-05-25T08:22:48.840Z,4.47
2023-05-25T08:25:17.470Z,4.50
2023-05-25T08:27:45.976Z,2.80
2023-05-25T08:30:14.535Z,3.47
2023-05-25T08:32:43.013Z,4.22
2023-05-25T08:35:14.149Z,4.40
2023-05-25T08:37:44.375Z,1.83
2023-05-25T08:40:16.411Z,2.47
2023-05-25T08:42:45.215Z,4.53
2023-05-25T08:45:26.565Z,4.40
2023-05-25T08:48:03.339Z,2.72
2023-05-25T08:50:32.666Z,4.28
2023-05-25T08:53:04.578Z,4.65
2023-05-25T08:55:37.019Z,2.22
2023-05-25T08:58:08.922Z,4.13
2023-05-25T09:00:40.258Z,6.70
2023-05-25T09:03:11.336Z,4.38
2023-05-25T09:05:40.011Z,3.00
2023-05-25T09:08:10.358Z,2.58
2023-05-25T09:10:39.272Z,5.97
2023-05-25T09:15:39.465Z,4.80
2023-05-25T09:18:07.789Z,12.25
2023-05-25T09:20:36.319Z,3.05
2023-05-25T09:23:05.173Z,5.25
2023-05-25T09:25:36.021Z,4.35
2023-05-25T09:28:21.352Z,1.80
2023-05-25T09:30:52.888Z,2.65
2023-05-25T09:33:21.527Z,5.45
2023-05-25T09:35:51.446Z,4.22
2023-05-25T09:38:20.745Z,3.88
2023-05-25T09:40:50.744Z,4.60
2023-05-25T09:43:32.416Z,5.05
2023-05-25T09:46:07.973Z,4.22
2023-05-25T09:48:37.235Z,2.42
2023-05-25T09:51:06.531Z,3.60
2023-05-25T09:53:35.028Z,4.72
2023-05-25T09:56:04.786Z,4.78
2023-05-25T09:58:33.219Z,4.43
2023-05-25T10:01:02.545Z,2.47
2023-05-25T10:03:30.944Z,4.93
2023-05-25T10:05:59.781Z,2.60
2023-05-25T10:08:29.891Z,3.10
2023-05-25T10:10:58.603Z,3.40
2023-05-25T10:13:29.009Z,2.53
2023-05-25T10:15:58.553Z,6.28
2023-05-25T10:18:28.765Z,3.88
2023-05-25T10:20:59.889Z,6.35
2023-05-25T10:23:31.393Z,1.30
2023-05-25T10:26:01.830Z,3.83
2023-05-25T10:28:32.286Z,3.35
2023-05-25T10:31:02.018Z,3.03
2023-05-25T10:33:35.559Z,5.00
2023-05-25T10:38:36.690Z,3.90
2023-05-25T10:41:06.159Z,1.67
2023-05-25T10:43:36.321Z,2.67
2023-05-25T10:46:04.983Z,8.38
2023-05-25T10:48:40.169Z,3.13
2023-05-25T10:51:11.079Z,4.10
2023-05-25T10:53:41.140Z,3.40
2023-05-25T10:56:10.794Z,3.90
2023-05-25T10:58:43.587Z,5.38
2023-05-25T11:01:12.964Z,2.90
2023-05-25T11:03:49.967Z,2.85
2023-05-25T11:06:18.930Z,6.90
2023-05-25T11:08:51.191Z,3.58
2023-05-25T11:11:19.689Z,5.00
2023-05-25T11:13:50.511Z,5.45
2023-05-25T11:16:24.646Z,11.00
2023-05-25T11:18:54.641Z,4.80
2023-05-25T11:21:24.625Z,5.65
2023-05-25T11:24:00.175Z,6.07
2023-05-25T11:26:30.712Z,5.07
2023-05-25T11:29:02.061Z,4.43
2023-05-25T11:31:36.441Z,6.43
2023-05-25T11:34:09.398Z,4.03
2023-05-25T11:36:39.355Z,4.43
2023-05-25T11:39:16.958Z,2.42
2023-05-25T11:41:50.110Z,3.35
2023-05-25T11:44:27.519Z,5.78
2023-05-25T11:46:57.750Z,1.38
2023-05-25T11:49:26.929Z,6.30
2023-05-25T11:51:55.608Z,2.45
2023-05-25T11:54:24.976Z,2.65
2023-05-25T11:56:53.790Z,2.90
2023-05-25T11:59:24.644Z,3.83
2023-05-25T12:01:58.025Z,5.55
2023-05-25T12:04:26.885Z,4.63
2023-05-25T12:07:02.849Z,4.97
2023-05-25T12:09:31.511Z,4.88
2023-05-25T12:12:00.929Z,5.15
2023-05-25T12:14:30.880Z,3.70
2023-05-25T12:16:59.823Z,5.18
2023-05-25T12:19:28.731Z,2.28
2023-05-25T12:21:57.255Z,2.55
2023-05-25T12:24:26.075Z,2.03
2023-05-25T12:26:57.384Z,5.63
2023-05-25T12:29:26.414Z,2.80
2023-05-25T12:32:03.400Z,4.75
2023-05-25T12:34:31.929Z,4.32
2023-05-25T12:37:01.546Z,3.97
2023-05-25T12:39:39.454Z,4.25
2023-05-25T12:42:15.204Z,4.90
2023-05-25T12:44:44.451Z,3.53
2023-05-25T12:47:15.096Z,2.88
2023-05-25T12:49:44.346Z,5.65
2023-05-25T12:52:13.577Z,5.50
2023-05-25T12:54:44.835Z,7.15
2023-05-25T12:57:14.723Z,2.55
2023-05-25T12:59:44.669Z,5.80
2023-05-25T13:02:15.932Z,6.82
2023-05-25T13:04:44.694Z,4.68
2023-05-25T13:07:13.335Z,4.63
2023-05-25T13:09:42.690Z,4.78
2023-05-25T13:12:11.208Z,4.20
2023-05-25T13:14:39.938Z,2.90
2023-05-25T13:17:08.418Z,5.10
2023-05-25T13:19:39.284Z,4.43
2023-05-25T13:22:07.758Z,4.90
2023-05-25T13:24:36.313Z,4.15
2023-05-25T13:27:05.070Z,6.82
2023-05-25T13:29:40.894Z,9.38
2023-05-25T13:32:10.230Z,7.78
2023-05-25T13:34:40.076Z,5.00
2023-05-25T13:37:08.456Z,6.25
2023-05-25T13:39:37.876Z,6.55
2023-05-25T13:42:06.381Z,3.03
2023-05-25T13:44:34.783Z,6.07
2023-05-25T13:47:03.556Z,9.75
2023-05-25T13:49:32.783Z,2.90
2023-05-25T13:52:02.512Z,7.72
2023-05-25T13:54:31.053Z,7.20
2023-05-25T13:56:59.780Z,6.82
2023-05-25T13:59:28.449Z,10.27
2023-05-25T14:01:57.808Z,6.65
2023-05-25T14:04:26.796Z,6.35
2023-05-25T14:06:56.488Z,9.00
2023-05-25T14:09:26.283Z,4.68
2023-05-25T14:11:54.706Z,8.50
2023-05-25T14:14:31.299Z,4.75
2023-05-25T14:17:01.281Z,8.48
2023-05-25T14:19:30.068Z,6.90
2023-05-25T14:24:31.805Z,4.85
2023-05-25T14:27:00.187Z,11.60
2023-05-25T14:29:28.801Z,9.63
2023-05-25T14:31:57.302Z,8.07
2023-05-25T14:34:25.797Z,6.90
2023-05-25T14:36:54.916Z,5.43
2023-05-25T14:39:23.372Z,9.85
2023-05-25T14:41:53.108Z,4.53
2023-05-25T14:44:21.500Z,11.65
2023-05-25T14:46:49.864Z,9.23
2023-05-25T14:49:18.559Z,8.10
2023-05-25T14:51:46.911Z,10.48
2023-05-25T14:54:15.418Z,9.15
2023-05-25T14:56:43.757Z,8.05
2023-05-25T14:59:13.815Z,9.75
2023-05-25T15:01:42.541Z,8.98
2023-05-25T15:04:11.803Z,7.15
2023-05-25T15:06:40.786Z,15.60
2023-05-25T15:09:09.481Z,7.82
2023-05-25T15:11:38.136Z,8.10
2023-05-25T15:14:06.481Z,5.57
2023-05-25T15:16:36.584Z,11.25
2023-05-25T15:19:05.404Z,4.75
2023-05-25T15:21:33.781Z,8.82
2023-05-25T15:24:02.390Z,6.53
2023-05-25T15:26:30.906Z,7.80
2023-05-25T15:28:59.445Z,5.60
2023-05-25T15:31:27.844Z,7.68
2023-05-25T15:33:59.138Z,6.22
2023-05-25T15:36:27.638Z,7.40
2023-05-25T15:38:56.314Z,8.88
2023-05-25T15:41:24.686Z,8.23
2023-05-25T15:43:56.401Z,5.57
2023-05-25T15:46:25.146Z,7.13
2023-05-25T15:48:53.570Z,7.78
2023-05-25T15:51:23.598Z,6.78
2023-05-25T15:53:52.352Z,4.30
2023-05-25T15:56:21.972Z,9.80
2023-05-25T15:58:51.280Z,10.25
2023-05-25T16:01:19.814Z,10.85
2023-05-25T16:03:49.434Z,10.98
2023-05-25T16:06:18.237Z,8.88
2023-05-25T16:08:48.294Z,7.95
2023-05-25T16:11:20.293Z,7.70
2023-05-25T16:13:49.365Z,13.77
2023-05-25T16:16:19.099Z,6.45
2023-05-25T16:18:48.033Z,12.88
2023-05-25T16:21:16.715Z,10.27
2023-05-25T16:23:45.244Z,13.77
2023-05-25T16:26:15.033Z,7.22
2023-05-25T16:28:43.848Z,9.23
2023-05-25T16:31:13.798Z,9.45
2023-05-25T16:33:43.792Z,8.60
2023-05-25T16:36:13.479Z,12.45
2023-05-25T16:38:42.076Z,8.38
2023-05-25T16:41:10.846Z,9.30
2023-05-25T16:43:41.197Z,18.20
2023-05-25T16:46:09.731Z,8.38
2023-05-25T16:48:38.179Z,12.88
2023-05-25T16:51:07.759Z,10.15
2023-05-25T16:53:36.101Z,10.27
2023-05-25T16:56:04.637Z,9.25
2023-05-25T16:58:33.085Z,17.25
2023-05-25T17:01:03.182Z,13.90
2023-05-25T17:03:32.615Z,12.35
2023-05-25T17:06:01.095Z,9.55
2023-05-25T17:08:29.975Z,16.85
2023-05-25T17:10:58.858Z,11.90
2023-05-25T17:13:27.516Z,11.52
2023-05-25T17:15:56.038Z,16.88
2023-05-25T17:18:26.915Z,8.40
2023-05-25T17:20:55.661Z,14.65
2023-05-25T17:23:24.628Z,8.98
2023-05-25T17:25:52.928Z,7.03
2023-05-25T17:28:21.458Z,17.88
2023-05-25T17:30:49.829Z,10.98
2023-05-25T17:33:18.315Z,11.40
2023-05-25T17:35:48.447Z,11.93
2023-05-25T17:38:16.874Z,11.82
2023-05-25T17:40:45.289Z,10.35
2023-05-25T17:43:13.905Z,12.68
2023-05-25T17:45:42.438Z,16.75
2023-05-25T17:48:10.929Z,12.63
2023-05-25T17:50:39.589Z,22.52
2023-05-25T17:53:09.329Z,14.95
2023-05-25T17:55:37.686Z,16.30
2023-05-25T17:58:06.216Z,14.70
2023-05-25T18:00:34.587Z,12.35
2023-05-25T18:03:03.113Z,15.98
2023-05-25T18:05:32.029Z,11.35
2023-05-25T18:08:00.731Z,9.75
2023-05-25T18:10:33.444Z,16.20
2023-05-25T18:13:02.031Z,14.43
2023-05-25T18:15:30.895Z,10.80
2023-05-25T18:18:00.714Z,15.57
2023-05-25T18:20:32.508Z,13.82
2023-05-25T18:23:01.510Z,19.83
2023-05-25T18:25:31.635Z,10.80
2023-05-25T18:28:00.195Z,12.98
2023-05-25T18:30:28.745Z,9.55
2023-05-25T18:32:57.146Z,13.82
2023-05-25T18:35:26.306Z,12.50
2023-05-25T18:37:54.713Z,12.88
2023-05-25T18:40:23.307Z,13.63
2023-05-25T18:42:53.291Z,17.27
2023-05-25T18:45:21.915Z,15.90
2023-05-25T18:47:50.431Z,11.85
2023-05-25T18:50:20.245Z,13.52
2023-05-25T18:52:50.990Z,14.88
2023-05-25T18:55:19.883Z,14.35
2023-05-25T18:57:48.406Z,11.93
2023-05-25T19:00:18.836Z,19.85
2023-05-25T19:02:47.514Z,9.48
2023-05-25T19:05:16.230Z,10.85
2023-05-25T19:07:58.459Z,11.60
2023-05-25T19:10:27.964Z,15.05
2023-05-25T19:12:59.220Z,12.73
2023-05-25T19:15:29.668Z,15.05
2023-05-25T19:17:58.212Z,15.82
2023-05-25T19:20:28.355Z,19.42
2023-05-25T19:22:57.327Z,14.30
2023-05-25T19:25:25.707Z,14.25
2023-05-25T19:27:54.457Z,14.70
2023-05-25T19:30:23.106Z,14.50
2023-05-25T19:32:53.193Z,13.48
2023-05-25T19:35:22.170Z,13.73
2023-05-25T19:37:50.555Z,8.75
2023-05-25T19:40:19.428Z,10.63
2023-05-25T19:42:48.605Z,12.45
2023-05-25T19:45:19.251Z,10.07
2023-05-25T19:47:47.783Z,15.05
2023-05-25T19:50:18.019Z,17.60
2023-05-25T19:52:46.749Z,12.88
2023-05-25T19:55:15.146Z,15.23
2023-05-25T19:57:43.866Z,15.73
2023-05-25T20:00:21.109Z,20.33
2023-05-25T20:02:54.441Z,11.40
2023-05-25T20:05:24.828Z,16.58
2023-05-25T20:07:53.609Z,11.98
2023-05-25T20:10:22.027Z,14.98
2023-05-25T20:12:50.717Z,14.38
2023-05-25T20:15:19.215Z,12.35
2023-05-25T20:17:48.063Z,10.20
2023-05-25T20:20:16.644Z,12.10
2023-05-25T20:22:46.482Z,13.10
2023-05-25T20:25:15.647Z,17.38
2023-05-25T20:27:44.269Z,11.10
2023-05-25T20:30:14.350Z,15.90
2023-05-25T20:32:44.092Z,18.95
2023-05-25T20:35:14.179Z,7.20
2023-05-25T20:37:43.176Z,22.58
2023-05-25T20:40:13.199Z,14.95
2023-05-25T20:42:41.815Z,10.52
2023-05-25T20:45:11.061Z,15.30
2023-05-25T20:47:41.005Z,11.32
2023-05-25T20:50:09.829Z,15.60
2023-05-25T20:52:38.174Z,15.73
2023-05-25T20:55:06.967Z,14.23
2023-05-25T20:57:37.019Z,7.72
2023-05-25T21:00:05.718Z,17.15
2023-05-25T21:02:34.403Z,21.00
2023-05-25T21:05:03.072Z,10.88
2023-05-25T21:07:31.727Z,14.50
2023-05-25T21:10:00.205Z,8.82
2023-05-25T21:12:29.084Z,15.38
2023-05-25T21:14:58.789Z,9.75
2023-05-25T21:17:28.280Z,11.45
2023-05-25T21:19:56.953Z,19.52
2023-05-25T21:22:25.512Z,17.80
2023-05-25T21:24:53.989Z,15.73
2023-05-25T21:27:22.555Z,17.48
2023-05-25T21:29:51.235Z,13.40
2023-05-25T21:32:20.989Z,11.93
2023-05-25T21:34:49.421Z,13.52
2023-05-25T21:37:17.907Z,18.42
2023-05-25T21:39:46.750Z,10.63
2023-05-25T21:42:15.274Z,12.55
2023-05-25T21:44:43.633Z,7.88
2023-05-25T21:47:12.165Z,13.93
2023-05-25T21:49:42.202Z,10.88
2023-05-25T21:52:20.090Z,11.00
2023-05-25T21:54:48.988Z,10.93
2023-05-25T21:57:17.364Z,13.90
2023-05-25T21:59:45.690Z,11.88
2023-05-25T22:02:14.187Z,10.43
2023-05-25T22:04:44.077Z,10.27
2023-05-25T22:07:12.519Z,12.73
2023-05-25T22:09:41.073Z,13.75
2023-05-25T22:12:09.704Z,18.55
2023-05-25T22:14:38.068Z,12.95
2023-05-25T22:17:08.113Z,14.43
2023-05-25T22:19:36.847Z,9.00
2023-05-25T22:22:06.988Z,15.98
2023-05-25T22:24:35.392Z,12.55
2023-05-25T22:27:03.916Z,12.05
2023-05-25T22:29:32.280Z,10.38
2023-05-25T22:32:00.903Z,10.38
2023-05-25T22:34:29.567Z,11.15
2023-05-25T22:36:57.982Z,11.90
2023-05-25T22:39:28.500Z,13.75
2023-05-25T22:41:57.236Z,15.63
2023-05-25T22:44:25.881Z,12.63
2023-05-25T22:46:54.498Z,15.13
2023-05-25T22:49:22.921Z,14.80
2023-05-25T22:51:51.264Z,12.05
2023-05-25T22:54:19.908Z,13.55
2023-05-25T22:56:49.894Z,11.05
2023-05-25T22:59:19.066Z,12.63
2023-05-25T23:01:47.703Z,16.42
2023-05-25T23:04:16.537Z,19.92
2023-05-25T23:06:44.928Z,11.30
2023-05-25T23:09:13.557Z,15.02
2023-05-25T23:11:42.940Z,9.93
2023-05-25T23:14:12.906Z,9.10
2023-05-25T23:16:42.671Z,18.20
2023-05-25T23:19:11.059Z,17.60
2023-05-25T23:21:39.378Z,13.77
2023-05-25T23:24:08.105Z,11.75
2023-05-25T23:26:36.412Z,10.27
2023-05-25T23:29:04.786Z,11.15
2023-05-25T23:31:34.775Z,11.63
2023-05-25T23:34:03.170Z,11.52
2023-05-25T23:36:33.678Z,13.50
2023-05-25T23:39:02.421Z,14.25
2023-05-25T23:41:30.957Z,13.05
2023-05-25T23:43:59.855Z,13.60
2023-05-25T23:46:31.605Z,13.52
2023-05-25T23:49:01.759Z,11.63
2023-05-25T23:51:30.548Z,19.35
2023-05-25T23:53:59.836Z,13.85
2023-05-25T23:56:28.706Z,13.38
2023-05-25T23:58:57.085Z,9.77
